Three Stars — 3ELI2 — position and weather

sailwx.info

Track history (hours):
 
Tides and Currents Weather Stations Pressure Air Temp Water Temp Dewpoint Dewpoint Depression Visibility Wind Speed Wind Dir Waves Ship Positions

Three Stars

Last reported at 2016-Nov-18 04:24 UTC. Time now 2016-Dec-05 16:42 UTC.
Position N 28°07' W 015°19'.
Warning: this ship's position is 17 days out of date.

Length 225 m; draft 13.5 m.

Type: Cargo ship. MMSI: 372950000.

Date/timePositionNaut miles runAvg speedWind from/ knotsBaromVisibWave heightAir tempDewpointWater temp
2016-Nov-18 04:24N 28°07' W 015°19'  
2016-Nov-12 23:34N 49°59' W 002°56'4812.1
2016-Nov-12 19:33N 50°12' W 001°43'17 8.3
2016-Nov-12 17:33N 50°16' W 001°18'3310.2
2016-Nov-12 14:18N 50°25' W 000°28'912.2
2016-Nov-12 13:33N 50°28' W 000°14'1212.2
2016-Nov-12 12:33N 50°31' E 000°04'1212.0
2016-Nov-12 11:32N 50°34' E 000°23'5010.1
2016-Nov-12 06:33N 51°04' E 001°27'3812.7
2016-Nov-12 03:33N 51°33' E 002°06'1211.4
2016-Nov-12 02:33N 51°42' E 002°18'18011.3
2016-Nov-11 10:33N 54°13' E 005°02'28911.1
2016-Nov-10 08:32N 57°50' E 010°42'10 9.6
2016-Nov-10 07:32N 57°41' E 010°44'0 0.2
2016-Nov-10 06:33N 57°41' E 010°44'0 0.0
2016-Nov-10 05:33N 57°41' E 010°44'0 0.0
2016-Nov-10 00:24N 57°41' E 010°44'0 0.1
2016-Nov-09 22:21N 57°41' E 010°44'0 0.0
2016-Nov-09 20:33N 57°41' E 010°44'0 0.2
2016-Nov-09 19:52N 57°41' E 010°44'6 8.0
2016-Nov-09 19:06N 57°37' E 010°53'712.1
2016-Nov-09 18:33N 57°34' E 011°04'1212.0
2016-Nov-09 17:34N 57°29' E 011°24'13310.2
2016-Nov-09 04:31N 55°17' E 011°04'2110.5
2016-Nov-09 02:34N 54°57' E 010°55'26 8.5
2016-Nov-08 23:33N 54°34' E 011°16'1111.3
2016-Nov-08 22:33N 54°30' E 011°34'1211.5
2016-Nov-08 21:33N 54°27' E 011°53'1210.3
2016-Nov-08 20:24N 54°29' E 012°13'106 9.8
2016-Nov-08 09:33N 54°48' E 015°13'  
Track history (hours):
 
Tides and Currents Weather Stations Pressure Air Temp Water Temp Dewpoint Dewpoint Depression Visibility Wind Speed Wind Dir Waves Ship Positions

Three Stars

Last reported at 2016-Nov-18 04:24 UTC. Time now 2016-Dec-05 16:42 UTC.
Position N 28°07' W 015°19'.
Warning: this ship's position is 17 days out of date.

Length 225 m; draft 13.5 m.

Type: Cargo ship. MMSI: 372950000.

Date/timePositionNaut miles runAvg speedWind from/ knotsBaromVisibWave heightAir tempDewpointWater temp
2016-Nov-18 04:24N 28°07' W 015°19'  
2016-Nov-12 23:34N 49°59' W 002°56'4812.1
2016-Nov-12 19:33N 50°12' W 001°43'17 8.3
2016-Nov-12 17:33N 50°16' W 001°18'3310.2
2016-Nov-12 14:18N 50°25' W 000°28'912.2
2016-Nov-12 13:33N 50°28' W 000°14'1212.2
2016-Nov-12 12:33N 50°31' E 000°04'1212.0
2016-Nov-12 11:32N 50°34' E 000°23'5010.1
2016-Nov-12 06:33N 51°04' E 001°27'3812.7
2016-Nov-12 03:33N 51°33' E 002°06'1211.4
2016-Nov-12 02:33N 51°42' E 002°18'18011.3
2016-Nov-11 10:33N 54°13' E 005°02'28911.1
2016-Nov-10 08:32N 57°50' E 010°42'10 9.6
2016-Nov-10 07:32N 57°41' E 010°44'0 0.2
2016-Nov-10 06:33N 57°41' E 010°44'0 0.0
2016-Nov-10 05:33N 57°41' E 010°44'0 0.0
2016-Nov-10 00:24N 57°41' E 010°44'0 0.1
2016-Nov-09 22:21N 57°41' E 010°44'0 0.0
2016-Nov-09 20:33N 57°41' E 010°44'0 0.2
2016-Nov-09 19:52N 57°41' E 010°44'6 8.0
2016-Nov-09 19:06N 57°37' E 010°53'712.1
2016-Nov-09 18:33N 57°34' E 011°04'1212.0
2016-Nov-09 17:34N 57°29' E 011°24'13310.2
2016-Nov-09 04:31N 55°17' E 011°04'2110.5
2016-Nov-09 02:34N 54°57' E 010°55'26 8.5
2016-Nov-08 23:33N 54°34' E 011°16'1111.3
2016-Nov-08 22:33N 54°30' E 011°34'1211.5
2016-Nov-08 21:33N 54°27' E 011°53'1210.3
2016-Nov-08 20:24N 54°29' E 012°13'106 9.8
2016-Nov-08 09:33N 54°48' E 015°13'  

Dump ship's entire track history